createdAt,value
2023-03-08T20:49:09.611Z,2.32
2023-03-08T20:50:09.529Z,2.28
2023-03-08T20:51:09.471Z,2.32
2023-03-08T20:52:09.418Z,2.21
2023-03-08T20:53:09.364Z,2.19
2023-03-08T20:54:09.305Z,2.26
2023-03-08T20:55:09.259Z,2.28
2023-03-08T20:56:09.204Z,2.23
2023-03-08T20:57:09.152Z,2.26
2023-03-08T20:58:09.102Z,2.16
2023-03-08T20:59:09.056Z,2.25
2023-03-08T21:00:08.995Z,2.18
2023-03-08T21:01:08.971Z,2.22
2023-03-08T21:02:08.896Z,2.16
2023-03-08T21:03:08.856Z,2.12
2023-03-08T21:04:08.799Z,2.21
2023-03-08T21:05:08.772Z,2.07
2023-03-08T21:06:08.710Z,2.07
2023-03-08T21:07:08.659Z,2.18
2023-03-08T21:08:08.614Z,2.14
2023-03-08T21:09:08.553Z,2.12
2023-03-08T21:10:08.506Z,2.12
2023-03-08T21:11:08.458Z,2.12
2023-03-08T21:12:08.400Z,2.21
2023-03-08T21:13:08.384Z,2.28
2023-03-08T21:14:08.333Z,2.21
2023-03-08T21:15:08.254Z,2.18
2023-03-08T21:16:08.353Z,2.25
2023-03-08T21:17:08.150Z,2.08
2023-03-08T21:18:08.103Z,2.23
2023-03-08T21:19:08.065Z,2.18
2023-03-08T21:20:08.001Z,2.19
2023-03-08T21:21:07.974Z,2.22
2023-03-08T21:22:07.905Z,2.22
2023-03-08T21:23:07.853Z,2.23
2023-03-08T21:24:07.816Z,2.19
2023-03-08T21:25:07.759Z,2.25
2023-03-08T21:26:07.706Z,2.28
2023-03-08T21:27:07.660Z,2.30
2023-03-08T21:28:07.605Z,2.21
2023-03-08T21:29:07.568Z,2.22
2023-03-08T21:30:07.510Z,2.22
2023-03-08T21:31:07.494Z,2.25
2023-03-08T21:32:07.453Z,2.33
2023-03-08T21:33:07.364Z,2.37
2023-03-08T21:34:07.317Z,2.33
2023-03-08T21:35:07.263Z,2.30
2023-03-08T21:36:07.260Z,2.36
2023-03-08T21:37:07.196Z,2.25
2023-03-08T21:38:07.117Z,2.34
2023-03-08T21:39:07.074Z,2.26
2023-03-08T21:40:07.304Z,2.40
2023-03-08T21:41:06.983Z,2.39
2023-03-08T21:42:06.923Z,2.37
2023-03-08T21:43:06.879Z,2.34
2023-03-08T21:44:06.836Z,2.33
2023-03-08T21:45:06.797Z,2.34
2023-03-08T21:46:06.744Z,2.40
2023-03-08T21:47:06.683Z,2.37
2023-03-08T21:48:06.632Z,2.39
2023-03-08T21:49:06.594Z,2.43
2023-03-08T21:50:08.387Z,2.44
2023-03-08T21:51:06.487Z,2.39
2023-03-08T21:52:06.445Z,2.43
